Time;durP1;ratioP1;P1;durP2;ratioP2;P2;SDS_P1;SDS_P2;PMS_P1;PMS_P2;Temp;Humidity;BMP_temperature;BMP_pressure;BME280_temperature;BME280_humidity;BME280_pressure;Samples;Min_cycle;Max_cycle;Signal;HPM_P1;HPM_P2
2022/09/20 00:02:10;;;;;;;9.52;1.83;;;11.00;99.90;;;;;;5052044;28;20114;-49
2022/09/20 00:04:36;;;;;;;10.55;1.85;;;11.10;99.90;;;;;;5059819;28;20565;-49
2022/09/20 00:07:02;;;;;;;10.43;2.15;;;11.20;99.90;;;;;;5062398;28;20044;-52
2022/09/20 00:09:28;;;;;;;7.18;2.08;;;11.20;99.90;;;;;;5059584;28;20412;-48
2022/09/20 00:11:53;;;;;;;12.65;2.13;;;11.30;99.90;;;;;;5054590;28;20116;-51
2022/09/20 00:14:19;;;;;;;5.72;2.13;;;11.30;99.90;;;;;;5059943;28;20044;-49
2022/09/20 00:16:45;;;;;;;9.70;2.55;;;11.30;99.90;;;;;;5055042;28;20126;-49
2022/09/20 00:19:19;;;;;;;9.82;1.80;;;11.40;99.90;;;;;;5057746;28;20319;-51
2022/09/20 00:21:44;;;;;;;8.98;1.73;;;11.40;99.90;;;;;;5057510;28;20560;-50
2022/09/20 00:24:10;;;;;;;12.27;1.58;;;11.40;99.90;;;;;;5058039;28;20049;-49
2022/09/20 00:26:37;;;;;;;8.00;1.45;;;11.50;99.90;;;;;;5061881;28;20088;-49
2022/09/20 00:29:04;;;;;;;9.50;1.63;;;11.50;99.90;;;;;;5056239;28;20053;-52
2022/09/20 00:31:30;;;;;;;7.47;1.52;;;11.50;99.90;;;;;;5059338;28;20052;-51
2022/09/20 00:36:45;;;;;;;12.35;2.88;;;11.50;99.90;;;;;;5062645;28;20159;-49
2022/09/20 00:39:13;;;;;;;7.90;1.77;;;11.50;99.90;;;;;;5062260;28;20583;-51
2022/09/20 00:41:39;;;;;;;7.18;1.45;;;11.50;99.90;;;;;;5057504;28;20060;-53
2022/09/20 00:44:42;;;;;;;8.52;1.70;;;11.50;99.90;;;;;;5052832;28;20048;-52
2022/09/20 00:47:32;;;;;;;10.57;1.90;;;11.50;99.90;;;;;;5055572;28;20057;-49
2022/09/20 00:50:21;;;;;;;9.15;1.50;;;11.60;99.90;;;;;;5058033;28;20053;-50
2022/09/20 00:52:49;;;;;;;11.43;1.83;;;11.60;99.90;;;;;;5052513;28;20049;-51
2022/09/20 00:55:17;;;;;;;11.77;1.90;;;11.60;99.90;;;;;;5058119;28;20045;-50
2022/09/20 00:57:45;;;;;;;10.13;1.50;;;11.60;99.90;;;;;;5057005;28;20403;-52
2022/09/20 01:00:13;;;;;;;9.88;2.45;;;11.60;99.90;;;;;;5058664;28;20056;-50
2022/09/20 01:02:44;;;;;;;7.05;1.35;;;11.60;99.90;;;;;;5057209;28;20491;-49
2022/09/20 01:05:12;;;;;;;10.75;1.50;;;11.60;99.90;;;;;;5058682;28;20111;-49
2022/09/20 01:07:39;;;;;;;10.05;1.80;;;11.60;99.90;;;;;;5061354;28;20123;-51
2022/09/20 01:10:09;;;;;;;6.18;1.50;;;11.60;99.90;;;;;;5062594;28;20060;-49
2022/09/20 01:12:35;;;;;;;7.25;1.50;;;11.70;99.90;;;;;;5062733;28;20044;-50
2022/09/20 01:15:04;;;;;;;8.70;1.20;;;11.70;99.90;;;;;;5047484;28;20048;-53
2022/09/20 01:17:33;;;;;;;8.23;1.48;;;11.70;99.90;;;;;;5056523;28;20064;-51
2022/09/20 01:20:18;;;;;;;7.30;1.70;;;11.70;99.90;;;;;;5057839;28;20153;-49
2022/09/20 01:23:06;;;;;;;7.28;1.77;;;11.70;99.90;;;;;;5058899;28;20040;-49
2022/09/20 01:25:53;;;;;;;8.43;1.70;;;11.70;99.90;;;;;;5060756;28;20052;-53
2022/09/20 01:28:23;;;;;;;5.65;1.35;;;11.70;99.90;;;;;;5050265;28;20495;-53
2022/09/20 01:31:05;;;;;;;7.03;1.35;;;11.70;99.90;;;;;;5054532;28;20299;-49
2022/09/20 01:33:45;;;;;;;9.55;1.60;;;11.70;99.90;;;;;;5058922;28;20556;-48
2022/09/20 01:36:18;;;;;;;6.45;1.45;;;11.70;99.90;;;;;;5049127;28;20053;-48
2022/09/20 01:39:09;;;;;;;6.53;1.20;;;11.80;99.90;;;;;;5055984;28;20048;-50
2022/09/20 01:41:54;;;;;;;8.93;1.35;;;11.70;99.90;;;;;;5059347;28;20113;-50
2022/09/20 01:44:19;;;;;;;9.05;1.42;;;11.70;99.90;;;;;;5053476;28;20561;-51
2022/09/20 01:46:52;;;;;;;9.60;1.60;;;11.70;99.90;;;;;;5057186;28;20054;-54
2022/09/20 01:49:43;;;;;;;6.03;1.50;;;11.70;99.90;;;;;;5060325;28;20052;-53
2022/09/20 01:52:14;;;;;;;3.65;1.08;;;11.70;99.90;;;;;;5064003;28;20139;-51
2022/09/20 01:55:22;;;;;;;7.63;1.02;;;11.60;99.90;;;;;;5065655;28;20451;-52
2022/09/20 01:57:55;;;;;;;8.32;1.60;;;11.60;99.90;;;;;;5050158;28;20055;-56
2022/09/20 02:00:37;;;;;;;;;;;11.60;99.90;;;;;;5064722;28;20064;-49
2022/09/20 02:03:41;;;;;;;8.35;1.45;;;11.50;99.90;;;;;;5061644;28;19924;-49
2022/09/20 02:06:27;;;;;;;2.50;1.02;;;11.50;99.90;;;;;;5061943;28;20052;-51
2022/09/20 02:09:14;;;;;;;8.65;2.00;;;11.50;99.90;;;;;;5063913;28;20121;-54
2022/09/20 02:11:56;;;;;;;7.10;1.42;;;11.50;99.90;;;;;;5064215;28;20084;-49
2022/09/20 02:14:44;;;;;;;6.07;1.33;;;11.50;99.90;;;;;;5065471;28;20064;-50
2022/09/20 02:17:23;;;;;;;7.00;1.05;;;11.50;99.90;;;;;;5064479;28;20048;-52
2022/09/20 02:19:52;;;;;;;6.47;1.40;;;11.50;99.90;;;;;;5061582;28;20060;-49
2022/09/20 02:22:43;;;;;;;7.00;1.85;;;11.50;99.90;;;;;;5059376;28;20045;-54
2022/09/20 02:25:21;;;;;;;8.18;1.40;;;11.50;99.90;;;;;;5066077;28;20084;-49
2022/09/20 02:27:52;;;;;;;5.35;1.25;;;11.50;99.90;;;;;;5061116;28;20052;-49
2022/09/20 02:30:45;;;;;;;7.10;1.40;;;11.50;99.90;;;;;;5058643;28;20102;-51
2022/09/20 02:33:41;;;;;;;5.03;1.20;;;11.50;99.90;;;;;;5054397;28;20115;-48
2022/09/20 02:36:44;;;;;;;6.72;2.08;;;11.50;99.90;;;;;;4990329;28;20822;-50
2022/09/20 02:39:18;;;;;;;6.60;1.27;;;11.50;99.90;;;;;;4991249;28;20053;-49
2022/09/20 02:42:15;;;;;;;7.70;1.23;;;11.50;99.90;;;;;;4997361;28;20573;-49
2022/09/20 02:44:59;;;;;;;5.97;1.63;;;11.50;99.90;;;;;;4993189;28;20065;-49
2022/09/20 02:47:43;;;;;;;5.70;1.20;;;11.50;99.90;;;;;;4999940;28;20769;-50
2022/09/20 02:50:19;;;;;;;6.18;1.52;;;11.50;99.90;;;;;;4996996;28;20057;-49
2022/09/20 02:53:07;;;;;;;4.40;1.50;;;11.50;99.90;;;;;;4989720;28;20486;-52
2022/09/20 02:55:57;;;;;;;4.85;0.90;;;11.50;99.90;;;;;;4988413;28;20412;-53
2022/09/20 02:58:45;;;;;;;5.13;1.10;;;11.50;99.90;;;;;;4993675;28;20132;-51
2022/09/20 03:01:32;;;;;;;7.85;1.60;;;11.50;99.90;;;;;;4990399;28;20061;-51
2022/09/20 03:04:07;;;;;;;7.20;1.23;;;11.50;99.90;;;;;;4977974;28;20057;-51
2022/09/20 03:06:48;;;;;;;4.78;1.27;;;11.50;99.90;;;;;;4995340;28;20211;-50
2022/09/20 03:09:35;;;;;;;9.55;2.00;;;11.50;99.90;;;;;;4991206;28;20109;-46
2022/09/20 03:12:18;;;;;;;4.28;1.00;;;11.50;99.90;;;;;;5005146;28;20480;-49
2022/09/20 03:15:01;;;;;;;4.55;1.02;;;11.40;99.90;;;;;;5060308;28;20053;-53
2022/09/20 03:17:56;;;;;;;6.22;1.35;;;11.40;99.90;;;;;;5059319;28;20102;-50
2022/09/20 03:20:32;;;;;;;7.55;1.55;;;11.40;99.90;;;;;;5057968;28;20513;-50
2022/09/20 03:23:01;;;;;;;4.30;1.52;;;11.40;99.90;;;;;;5055522;28;20055;-48
2022/09/20 03:26:09;;;;;;;11.25;1.55;;;11.30;99.90;;;;;;5053593;28;20045;-48
2022/09/20 03:28:38;;;;;;;5.63;1.20;;;11.40;99.90;;;;;;4967428;28;20055;-47
2022/09/20 03:31:42;;;;;;;9.20;1.88;;;11.30;99.90;;;;;;4951979;28;20114;-48
2022/09/20 03:34:29;;;;;;;6.70;1.27;;;11.30;99.90;;;;;;4895810;29;20143;-49
2022/09/20 03:37:08;;;;;;;5.32;1.38;;;11.30;99.90;;;;;;4870549;29;20064;-53
2022/09/20 03:39:59;;;;;;;5.80;1.30;;;11.30;99.90;;;;;;4899172;29;20518;-49
2022/09/20 03:42:28;;;;;;;2.75;0.90;;;11.30;99.90;;;;;;4885719;29;20059;-49
2022/09/20 03:45:41;;;;;;;6.93;1.65;;;11.30;99.90;;;;;;4886269;29;20065;-49
2022/09/20 03:48:26;;;;;;;10.90;2.38;;;11.30;99.90;;;;;;4827659;29;20534;-49
2022/09/20 03:50:54;;;;;;;6.32;1.40;;;11.20;99.90;;;;;;4827923;29;20640;-48
2022/09/20 03:53:49;;;;;;;4.18;1.10;;;11.20;99.90;;;;;;4827356;29;20057;-48
2022/09/20 03:56:32;;;;;;;3.92;1.00;;;11.20;99.90;;;;;;4827730;29;20050;-50
2022/09/20 03:59:17;;;;;;;5.03;1.20;;;11.20;99.90;;;;;;4846227;29;20059;-49
2022/09/20 04:02:08;;;;;;;10.15;1.70;;;11.20;99.90;;;;;;4921155;29;20052;-49
2022/09/20 04:05:01;;;;;;;5.68;0.82;;;11.10;99.90;;;;;;4947148;28;20201;-49
2022/09/20 04:07:30;;;;;;;5.47;1.52;;;11.10;99.90;;;;;;4977254;28;20441;-49
2022/09/20 04:10:14;;;;;;;6.93;1.77;;;11.10;99.90;;;;;;4979339;28;20713;-49
2022/09/20 04:12:57;;;;;;;8.48;1.48;;;11.10;99.90;;;;;;4961472;28;20053;-49
2022/09/20 04:15:43;;;;;;;3.80;0.85;;;11.00;99.90;;;;;;4982408;28;20058;-49
2022/09/20 04:18:14;;;;;;;5.80;1.25;;;11.00;99.90;;;;;;4979889;28;20062;-47
2022/09/20 04:20:54;;;;;;;6.63;1.88;;;11.00;99.90;;;;;;4984086;28;20485;-48
2022/09/20 04:23:52;;;;;;;6.05;1.08;;;11.10;99.90;;;;;;4948629;28;20069;-48
2022/09/20 04:26:42;;;;;;;6.05;1.70;;;11.10;99.90;;;;;;5062029;28;20135;-48
2022/09/20 04:29:19;;;;;;;6.93;1.50;;;11.10;99.90;;;;;;5056935;28;20088;-49
2022/09/20 04:31:55;;;;;;;5.18;1.35;;;11.10;99.90;;;;;;5052344;28;20110;-50
2022/09/20 04:36:27;;;;;;;7.18;1.65;;;11.00;99.90;;;;;;5056721;28;20059;-49
2022/09/20 04:37:31;;;;;;;9.35;1.42;;;11.10;99.90;;;;;;5060840;28;20079;-48
2022/09/20 04:40:18;;;;;;;5.85;1.13;;;11.10;99.90;;;;;;5058026;28;20055;-48
2022/09/20 04:42:53;;;;;;;5.78;1.30;;;11.10;99.90;;;;;;5053257;28;20091;-49
2022/09/20 04:45:56;;;;;;;4.93;1.10;;;11.10;99.90;;;;;;5052785;28;20586;-46
2022/09/20 04:49:03;;;;;;;5.38;1.45;;;11.10;99.90;;;;;;5059482;28;20131;-47
2022/09/20 04:51:40;;;;;;;7.63;1.65;;;11.10;99.90;;;;;;5056611;28;20110;-48
2022/09/20 04:54:49;;;;;;;7.45;1.20;;;11.10;99.90;;;;;;5051219;28;20083;-50
2022/09/20 04:57:23;;;;;;;5.18;1.33;;;11.10;99.90;;;;;;5050765;28;20094;-49
2022/09/20 04:59:53;;;;;;;8.13;1.88;;;11.10;99.90;;;;;;5047012;28;20048;-49
2022/09/20 05:02:56;;;;;;;6.18;1.42;;;11.10;99.90;;;;;;5060875;28;20170;-50
2022/09/20 05:05:41;;;;;;;6.50;1.45;;;11.10;99.90;;;;;;5047036;28;20059;-48
2022/09/20 05:08:16;;;;;;;7.50;2.10;;;11.10;99.90;;;;;;5060511;28;20056;-49
2022/09/20 05:11:05;;;;;;;7.45;2.00;;;11.10;99.90;;;;;;5056519;28;20048;-48
2022/09/20 05:14:15;;;;;;;6.50;1.85;;;11.10;99.90;;;;;;5051929;28;20064;-49
2022/09/20 05:17:05;;;;;;;7.93;1.73;;;11.10;99.90;;;;;;5053602;28;20509;-49
2022/09/20 05:20:13;;;;;;;8.10;2.28;;;11.10;99.90;;;;;;5058800;28;20053;-49
2022/09/20 05:23:22;;;;;;;8.50;1.67;;;11.10;99.90;;;;;;5043328;28;20096;-50
2022/09/20 05:26:26;;;;;;;8.60;2.10;;;11.10;99.90;;;;;;4978509;28;20090;-48
2022/09/20 05:29:03;;;;;;;8.38;1.88;;;11.10;99.90;;;;;;4985720;28;20061;-51
2022/09/20 05:32:05;;;;;;;9.07;2.22;;;11.10;99.90;;;;;;4982321;28;20054;-50
2022/09/20 05:34:43;;;;;;;6.57;2.97;;;11.10;99.90;;;;;;4943500;28;20098;-49
2022/09/20 05:37:46;;;;;;;6.38;2.08;;;11.10;99.90;;;;;;4947805;28;20099;-53
2022/09/20 05:40:38;;;;;;;8.43;1.75;;;11.10;99.90;;;;;;4954686;28;20464;-49
2022/09/20 05:43:16;;;;;;;4.78;1.42;;;11.10;99.90;;;;;;4951591;28;20058;-50
2022/09/20 05:46:15;;;;;;;7.70;1.73;;;11.10;99.90;;;;;;4953673;28;20106;-50
2022/09/20 05:49:06;;;;;;;7.28;1.50;;;11.10;99.90;;;;;;4959685;28;20059;-54
2022/09/20 05:52:01;;;;;;;10.00;2.13;;;11.10;99.90;;;;;;4959997;28;20069;-51
2022/09/20 05:54:45;;;;;;;8.65;1.38;;;11.20;99.90;;;;;;4962534;28;20635;-48
2022/09/20 05:57:45;;;;;;;6.35;2.00;;;11.20;99.90;;;;;;4945749;28;20065;-50
2022/09/20 06:00:19;;;;;;;7.30;1.67;;;11.30;99.90;;;;;;4963077;28;20054;-49
2022/09/20 06:03:06;;;;;;;5.78;1.50;;;11.40;99.90;;;;;;4981418;28;20101;-50
2022/09/20 06:05:47;;;;;;;6.38;1.42;;;11.50;99.90;;;;;;4982312;28;20430;-49
2022/09/20 06:08:43;;;;;;;8.43;1.75;;;11.70;99.90;;;;;;4984784;28;20082;-48
2022/09/20 06:11:46;;;;;;;7.07;1.60;;;12.00;99.90;;;;;;5044028;28;20102;-49
2022/09/20 06:14:18;;;;;;;4.53;1.20;;;13.00;99.90;;;;;;4986638;28;20054;-53
2022/09/20 06:16:52;;;;;;;3.00;1.20;;;14.10;99.90;;;;;;4993603;28;20121;-49
2022/09/20 06:19:39;;;;;;;9.18;1.65;;;15.10;99.90;;;;;;4991042;28;20054;-49
2022/09/20 06:22:26;;;;;;;7.05;1.90;;;16.10;99.90;;;;;;4977208;28;20535;-49
2022/09/20 06:25:03;;;;;;;8.13;1.45;;;17.00;99.90;;;;;;4985748;28;20058;-49
2022/09/20 06:27:39;;;;;;;5.45;1.25;;;17.60;99.90;;;;;;4991971;28;20473;-47
2022/09/20 06:30:13;;;;;;;8.18;1.70;;;18.10;99.90;;;;;;4988934;28;20050;-46
2022/09/20 06:33:09;;;;;;;5.85;1.58;;;18.60;99.90;;;;;;4988895;28;20062;-47
2022/09/20 06:35:43;;;;;;;6.97;1.80;;;19.00;99.90;;;;;;4990307;28;20038;-47
2022/09/20 06:41:51;;;;;;;5.72;1.10;;;17.80;99.90;;;;;;4979164;28;20061;-49
2022/09/20 06:44:16;;;;;;;7.40;1.52;;;17.00;99.90;;;;;;4982036;28;20054;-46
2022/09/20 06:46:42;;;;;;;5.88;1.45;;;16.60;99.90;;;;;;4981391;28;20089;-48
2022/09/20 06:49:08;;;;;;;6.90;1.30;;;16.40;99.90;;;;;;4981018;28;20392;-46
2022/09/20 06:51:36;;;;;;;5.15;1.40;;;16.30;99.90;;;;;;4990141;28;20710;-46
2022/09/20 06:54:04;;;;;;;6.13;1.60;;;15.90;99.90;;;;;;4995991;28;20489;-46
2022/09/20 06:56:35;;;;;;;6.80;1.33;;;15.60;99.90;;;;;;4992519;28;20089;-48
2022/09/20 06:59:09;;;;;;;7.35;1.92;;;15.20;99.90;;;;;;4993289;28;20057;-50
2022/09/20 07:01:35;;;;;;;3.88;1.23;;;14.80;99.90;;;;;;4992548;28;20740;-48
2022/09/20 07:04:02;;;;;;;7.93;2.35;;;14.50;99.90;;;;;;4994642;28;20243;-51
2022/09/20 07:06:28;;;;;;;8.25;1.48;;;14.20;99.90;;;;;;5001734;28;20053;-47
2022/09/20 07:08:53;;;;;;;4.75;1.33;;;14.00;99.90;;;;;;5000595;28;20068;-48
2022/09/20 07:11:22;;;;;;;5.03;1.35;;;13.80;99.90;;;;;;4984937;28;20058;-47
2022/09/20 07:13:55;;;;;;;5.75;1.35;;;13.80;99.90;;;;;;5000762;28;20049;-50
2022/09/20 07:16:21;;;;;;;5.32;1.30;;;13.70;99.90;;;;;;5035682;28;20065;-48
2022/09/20 07:18:47;;;;;;;9.88;1.67;;;13.70;99.90;;;;;;5042809;28;20041;-47
2022/09/20 07:21:15;;;;;;;8.18;1.42;;;13.70;99.90;;;;;;5041156;28;20057;-52
2022/09/20 07:23:44;;;;;;;6.75;1.80;;;13.70;99.90;;;;;;5042756;28;20080;-50
2022/09/20 07:26:19;;;;;;;5.93;1.20;;;13.70;99.90;;;;;;5043849;28;20099;-50
2022/09/20 07:28:45;;;;;;;7.28;1.52;;;13.70;99.90;;;;;;5041638;28;20415;-48
2022/09/20 07:31:11;;;;;;;6.13;1.58;;;13.70;99.90;;;;;;5043016;28;20144;-49
2022/09/20 07:33:37;;;;;;;4.00;1.20;;;13.70;99.90;;;;;;5051583;28;20048;-54
2022/09/20 07:36:03;;;;;;;5.07;1.20;;;13.70;99.90;;;;;;5060805;28;20056;-47
2022/09/20 07:38:28;;;;;;;8.25;1.70;;;13.70;99.90;;;;;;5058019;28;20056;-49
2022/09/20 07:40:59;;;;;;;7.38;1.40;;;13.70;99.90;;;;;;5052271;28;20053;-46
2022/09/20 07:43:25;;;;;;;3.95;1.35;;;13.70;99.90;;;;;;5052907;28;20048;-49
2022/09/20 07:45:53;;;;;;;6.03;1.58;;;13.70;99.90;;;;;;5044214;28;20396;-49
2022/09/20 07:48:38;;;;;;;8.80;1.73;;;13.70;99.90;;;;;;5057344;28;20059;-52
2022/09/20 07:51:09;;;;;;;6.03;1.45;;;13.80;99.90;;;;;;5046317;28;20049;-51
2022/09/20 07:53:36;;;;;;;7.50;1.45;;;13.90;99.90;;;;;;5058180;28;20049;-49
2022/09/20 07:56:05;;;;;;;4.88;1.30;;;14.00;99.90;;;;;;5042018;28;20065;-49
2022/09/20 07:58:33;;;;;;;7.35;1.90;;;14.20;99.90;;;;;;5046218;28;20139;-49
2022/09/20 08:01:01;;;;;;;8.07;2.00;;;14.50;99.90;;;;;;5059812;28;20080;-47
2022/09/20 08:03:29;;;;;;;5.70;1.55;;;14.90;99.90;;;;;;5053612;28;20055;-46
2022/09/20 08:06:15;;;;;;;7.40;1.98;;;15.30;99.90;;;;;;5059984;28;20469;-50
2022/09/20 08:08:41;;;;;;;10.00;1.50;;;15.50;99.90;;;;;;5050905;28;20131;-52
2022/09/20 08:11:19;;;;;;;6.03;1.27;;;15.80;99.90;;;;;;5055160;28;20052;-48
2022/09/20 08:13:48;;;;;;;6.28;1.85;;;16.00;99.90;;;;;;5057299;28;20087;-49
2022/09/20 08:16:15;;;;;;;6.28;1.55;;;16.10;99.90;;;;;;5059541;28;20056;-48
2022/09/20 08:18:46;;;;;;;9.75;1.95;;;16.20;99.90;;;;;;5052765;28;20055;-47
2022/09/20 08:21:12;;;;;;;7.97;1.67;;;16.30;99.90;;;;;;5054493;28;20053;-48
2022/09/20 08:23:41;;;;;;;7.20;1.77;;;16.40;99.90;;;;;;5044260;28;20531;-48
2022/09/20 08:26:11;;;;;;;4.03;1.30;;;16.40;99.90;;;;;;5044330;28;20064;-49
2022/09/20 08:28:38;;;;;;;6.03;1.60;;;16.50;99.90;;;;;;5053646;28;20051;-51
2022/09/20 08:31:09;;;;;;;7.80;1.55;;;16.60;99.90;;;;;;5057057;28;20110;-49
2022/09/20 08:33:37;;;;;;;8.13;1.60;;;16.70;99.90;;;;;;5043295;28;20056;-51
2022/09/20 08:36:09;;;;;;;5.85;1.60;;;16.80;99.90;;;;;;5056221;28;20487;-49
2022/09/20 08:38:35;;;;;;;6.28;1.33;;;16.80;99.90;;;;;;5056274;28;20048;-51
2022/09/20 08:41:32;;;;;;;7.93;1.27;;;16.90;99.90;;;;;;5050100;28;20037;-48
2022/09/20 08:44:12;;;;;;;6.55;1.45;;;17.00;99.90;;;;;;5054760;28;20069;-49
2022/09/20 08:46:46;;;;;;;17.58;1.90;;;17.00;99.90;;;;;;5043058;28;20045;-49
2022/09/20 08:49:18;;;;;;;6.85;1.65;;;17.20;99.90;;;;;;5055182;28;20594;-49
2022/09/20 08:51:49;;;;;;;4.93;1.10;;;17.40;99.90;;;;;;5057895;28;20071;-52
2022/09/20 08:54:17;;;;;;;6.30;1.20;;;17.80;99.90;;;;;;5062488;28;20064;-50
2022/09/20 08:56:45;;;;;;;6.38;1.27;;;18.10;99.90;;;;;;5059446;28;20067;-52
2022/09/20 08:59:18;;;;;;;6.18;1.42;;;18.30;99.90;;;;;;5062770;28;20119;-49
2022/09/20 09:01:47;;;;;;;4.45;1.13;;;18.10;99.90;;;;;;5046916;28;20052;-51
2022/09/20 09:04:20;;;;;;;5.97;1.30;;;18.10;99.90;;;;;;5060753;28;20044;-52
2022/09/20 09:06:48;;;;;;;5.30;1.48;;;17.80;99.90;;;;;;5062319;28;20487;-53
2022/09/20 09:09:23;;;;;;;5.50;1.95;;;17.70;99.90;;;;;;5059951;28;20087;-52
2022/09/20 09:11:54;;;;;;;7.95;1.30;;;17.60;99.90;;;;;;5028808;28;20064;-51
2022/09/20 09:14:47;;;;;;;6.88;1.75;;;17.40;99.90;;;;;;5055151;28;20116;-52
2022/09/20 09:17:16;;;;;;;8.02;1.55;;;17.40;99.90;;;;;;5058755;28;20721;-51
2022/09/20 09:19:47;;;;;;;6.18;1.55;;;17.20;99.90;;;;;;5058169;28;20083;-53
2022/09/20 09:22:35;;;;;;;5.55;1.42;;;16.90;99.90;;;;;;5054873;28;20139;-56
2022/09/20 09:25:14;;;;;;;5.75;2.22;;;16.50;99.90;;;;;;5047182;28;20055;-49
2022/09/20 09:28:05;;;;;;;5.97;1.27;;;15.90;99.90;;;;;;5063236;28;20056;-54
2022/09/20 09:30:33;;;;;;;6.15;1.45;;;16.00;99.90;;;;;;5062022;28;20088;-51
2022/09/20 09:33:26;;;;;;;5.53;1.50;;;15.90;99.90;;;;;;5055282;28;20150;-52
2022/09/20 09:35:58;;;;;;;5.85;1.35;;;15.90;99.90;;;;;;5065243;28;20131;-51
2022/09/20 09:38:27;;;;;;;4.50;1.25;;;15.90;99.90;;;;;;5067036;28;20144;-56
2022/09/20 09:40:56;;;;;;;5.63;1.10;;;15.90;99.90;;;;;;5053640;28;20445;-49
2022/09/20 09:43:27;;;;;;;6.88;1.33;;;16.00;99.90;;;;;;5063138;28;20069;-49
2022/09/20 09:46:13;;;;;;;5.35;1.30;;;16.00;99.90;;;;;;5062064;28;20047;-52
2022/09/20 09:48:39;;;;;;;3.33;1.20;;;16.10;99.90;;;;;;5063355;28;20059;-50
2022/09/20 09:51:08;;;;;;;4.43;1.05;;;16.20;99.90;;;;;;5064632;28;20407;-48
2022/09/20 09:53:35;;;;;;;6.22;1.60;;;16.30;99.90;;;;;;5063923;28;20084;-50
2022/09/20 09:56:10;;;;;;;5.10;1.30;;;16.30;99.90;;;;;;5065514;28;20048;-50
2022/09/20 09:59:00;;;;;;;6.95;1.35;;;16.50;99.90;;;;;;5063635;28;20063;-49
2022/09/20 10:01:52;;;;;;;4.60;1.20;;;16.50;99.90;;;;;;5054373;28;20490;-50
2022/09/20 10:04:29;;;;;;;4.63;1.20;;;16.60;99.90;;;;;;5064468;28;20048;-52
2022/09/20 10:07:27;;;;;;;6.22;1.23;;;16.60;99.90;;;;;;5053168;28;20052;-51
2022/09/20 10:10:31;;;;;;;6.97;1.30;;;16.80;99.90;;;;;;5045044;28;20057;-49
2022/09/20 10:13:22;;;;;;;7.57;1.63;;;16.70;99.90;;;;;;5042027;28;20604;-51
2022/09/20 10:16:11;;;;;;;7.45;1.25;;;16.90;99.90;;;;;;5045876;28;20045;-54
2022/09/20 10:18:43;;;;;;;8.75;1.88;;;17.10;99.90;;;;;;5034008;28;20045;-52
2022/09/20 10:21:28;;;;;;;8.48;2.08;;;17.30;99.90;;;;;;5037288;28;20127;-54
2022/09/20 10:24:18;;;;;;;5.00;1.63;;;17.40;99.90;;;;;;5044931;28;20053;-55
2022/09/20 10:27:00;;;;;;;7.57;1.50;;;17.40;99.90;;;;;;5034383;28;20052;-53
2022/09/20 10:29:26;;;;;;;6.95;1.50;;;17.60;99.90;;;;;;5040960;28;20131;-52
2022/09/20 10:32:17;;;;;;;8.55;1.35;;;17.60;99.90;;;;;;5029646;28;20049;-52
2022/09/20 10:35:02;;;;;;;3.20;1.27;;;17.70;99.90;;;;;;5019984;28;20056;-51
2022/09/20 10:37:48;;;;;;;6.78;1.35;;;17.70;99.90;;;;;;5042562;28;20128;-53
2022/09/20 10:40:14;;;;;;;5.47;1.23;;;17.70;99.90;;;;;;5037513;28;20469;-53
2022/09/20 10:43:13;;;;;;;4.65;1.27;;;17.50;99.90;;;;;;5041560;28;20049;-49
2022/09/20 10:46:15;;;;;;;4.13;0.98;;;17.30;99.90;;;;;;5043655;28;20535;-53
2022/09/20 10:49:01;;;;;;;7.32;1.48;;;17.20;99.90;;;;;;4999867;28;20129;-51
2022/09/20 10:51:42;;;;;;;6.15;1.20;;;17.00;99.90;;;;;;5022104;28;20050;-50
2022/09/20 10:54:56;;;;;;;6.35;1.83;;;16.70;99.90;;;;;;5036485;28;20152;-49
2022/09/20 10:57:28;;;;;;;8.88;1.63;;;16.70;99.90;;;;;;5018688;28;20088;-54
2022/09/20 11:00:21;;;;;;;7.75;2.05;;;16.60;99.90;;;;;;5045002;28;20068;-54
2022/09/20 11:03:00;;;;;;;7.70;1.27;;;16.50;99.90;;;;;;5015152;28;20714;-50
2022/09/20 11:05:38;;;;;;;4.97;1.40;;;16.50;99.90;;;;;;5036173;28;20382;-56
2022/09/20 11:08:14;;;;;;;5.97;1.75;;;16.40;99.90;;;;;;5046379;28;20061;-53
2022/09/20 11:10:48;;;;;;;6.20;1.60;;;16.40;99.90;;;;;;5057727;28;20064;-53
2022/09/20 11:13:38;;;;;;;9.27;1.55;;;16.40;99.90;;;;;;5062105;28;20499;-53
2022/09/20 11:16:13;;;;;;;5.80;1.30;;;16.30;99.90;;;;;;5056060;28;20062;-52
2022/09/20 11:18:53;;;;;;;6.05;1.55;;;16.30;99.90;;;;;;5056181;28;20051;-54
2022/09/20 11:21:21;;;;;;;4.38;1.17;;;16.10;99.90;;;;;;5053600;28;21472;-53
2022/09/20 11:24:12;;;;;;;6.00;1.10;;;16.00;99.90;;;;;;5055222;28;20049;-51
2022/09/20 11:26:49;;;;;;;5.70;1.35;;;16.00;99.90;;;;;;5048385;28;20060;-53
2022/09/20 11:29:49;;;;;;;5.78;1.27;;;16.00;99.90;;;;;;5046537;28;20041;-49
2022/09/20 11:32:55;;;;;;;6.60;1.25;;;16.00;99.90;;;;;;5049517;28;20040;-53
2022/09/20 11:35:21;;;;;;;6.00;1.50;;;16.00;99.90;;;;;;4977055;28;20133;-50
2022/09/20 11:37:59;;;;;;;6.55;2.13;;;16.20;99.90;;;;;;4974573;28;20058;-52
2022/09/20 11:40:32;;;;;;;9.85;1.80;;;16.50;99.90;;;;;;4961085;28;20390;-53
2022/09/20 11:43:01;;;;;;;5.18;1.40;;;16.70;99.90;;;;;;4952134;28;20117;-53
2022/09/20 11:45:29;;;;;;;5.90;1.55;;;16.90;99.90;;;;;;4980715;28;20069;-52
2022/09/20 11:48:16;;;;;;;7.22;1.00;;;17.00;99.90;;;;;;4981625;28;20101;-51
2022/09/20 11:50:50;;;;;;;5.68;1.10;;;17.40;99.90;;;;;;4972093;28;20054;-53
2022/09/20 11:53:23;;;;;;;6.57;1.27;;;17.70;99.90;;;;;;4980152;28;20061;-54
2022/09/20 11:56:11;;;;;;;5.28;1.42;;;18.00;99.90;;;;;;4965711;28;20054;-54
2022/09/20 11:58:55;;;;;;;4.78;1.10;;;18.10;99.90;;;;;;4964537;28;20070;-53
2022/09/20 12:01:41;;;;;;;7.20;1.30;;;18.10;99.90;;;;;;4973900;28;20065;-52
2022/09/20 12:04:27;;;;;;;3.80;1.23;;;18.20;99.90;;;;;;4972492;28;20061;-49
2022/09/20 12:07:24;;;;;;;3.97;1.17;;;18.20;99.90;;;;;;4971108;28;20116;-54
2022/09/20 12:10:07;;;;;;;6.68;1.73;;;18.20;99.90;;;;;;4980637;28;20805;-52
2022/09/20 12:12:45;;;;;;;7.28;2.00;;;18.20;99.90;;;;;;5056889;28;20102;-51
2022/09/20 12:15:20;;;;;;;5.00;1.23;;;18.00;99.90;;;;;;5043974;28;20052;-56
2022/09/20 12:17:46;;;;;;;13.98;2.33;;;17.70;99.90;;;;;;5043663;28;20084;-56
2022/09/20 12:20:34;;;;;;;6.32;1.77;;;17.50;99.90;;;;;;5044263;28;20087;-54
2022/09/20 12:23:41;;;;;;;8.95;1.40;;;17.50;99.90;;;;;;5043199;28;20056;-52
2022/09/20 12:26:19;;;;;;;7.00;1.25;;;17.40;99.90;;;;;;5043986;28;20125;-53
2022/09/20 12:28:50;;;;;;;6.80;1.73;;;17.50;99.90;;;;;;5042649;28;20049;-51
2022/09/20 12:31:21;;;;;;;6.57;1.33;;;17.50;99.90;;;;;;5047898;28;20139;-52
2022/09/20 12:34:09;;;;;;;7.72;1.50;;;17.60;99.90;;;;;;5061466;28;20053;-54
2022/09/20 12:37:04;;;;;;;8.15;1.80;;;17.50;99.90;;;;;;5060453;28;20068;-51
2022/09/20 12:39:38;;;;;;;7.60;1.70;;;17.40;99.90;;;;;;5056861;28;20052;-51
2022/09/20 12:42:09;;;;;;;5.10;1.70;;;17.30;99.90;;;;;;5062513;28;20056;-51
2022/09/20 12:44:46;;;;;;;7.40;1.45;;;17.20;99.90;;;;;;5050304;28;20084;-55
2022/09/20 12:47:12;;;;;;;5.25;1.30;;;17.30;99.90;;;;;;5056803;28;20060;-52
2022/09/20 12:52:54;;;;;;;4.65;1.08;;;17.40;99.90;;;;;;5055495;28;20051;-52
2022/09/20 12:55:48;;;;;;;5.20;1.30;;;17.30;99.90;;;;;;5057713;28;20582;-54
2022/09/20 12:58:15;;;;;;;10.30;1.80;;;17.20;99.90;;;;;;5057599;28;20051;-54
2022/09/20 13:00:58;;;;;;;5.50;1.50;;;17.20;99.90;;;;;;5051606;28;20056;-50
2022/09/20 13:03:38;;;;;;;5.43;0.90;;;17.30;99.90;;;;;;5056929;28;20080;-53
2022/09/20 13:06:09;;;;;;;5.43;1.02;;;17.40;99.90;;;;;;5057471;28;20056;-54
2022/09/20 13:08:41;;;;;;;7.88;1.35;;;17.40;99.90;;;;;;5053424;28;20057;-51
2022/09/20 13:11:12;;;;;;;7.97;1.35;;;17.30;99.90;;;;;;5054009;28;20059;-54
2022/09/20 13:13:59;;;;;;;5.07;1.33;;;17.30;99.90;;;;;;5058412;28;20060;-52
2022/09/20 13:16:47;;;;;;;7.93;1.73;;;17.30;99.90;;;;;;5054788;28;20487;-50
2022/09/20 13:19:29;;;;;;;4.90;1.30;;;17.30;99.90;;;;;;5053132;28;20056;-54
2022/09/20 13:22:10;;;;;;;5.75;1.35;;;17.40;99.90;;;;;;5054862;28;20049;-54
2022/09/20 13:25:00;;;;;;;7.30;1.23;;;17.40;99.90;;;;;;5059155;28;20055;-54
2022/09/20 13:27:39;;;;;;;6.75;1.30;;;17.40;99.90;;;;;;4991913;28;20982;-52
2022/09/20 13:30:25;;;;;;;8.18;1.83;;;17.20;99.90;;;;;;4992698;28;20064;-52
2022/09/20 13:32:51;;;;;;;6.18;1.30;;;17.20;99.90;;;;;;4995430;28;20093;-50
2022/09/20 13:35:23;;;;;;;12.13;1.30;;;17.10;99.90;;;;;;4996486;28;20104;-52
2022/09/20 13:37:56;;;;;;;13.68;2.45;;;17.10;99.90;;;;;;4981100;28;20061;-51
2022/09/20 13:40:37;;;;;;;9.30;1.20;;;16.90;99.90;;;;;;4997503;28;20054;-50
2022/09/20 13:43:32;;;;;;;6.53;1.17;;;16.80;99.90;;;;;;4983858;28;20064;-49
2022/09/20 13:46:06;;;;;;;6.70;2.03;;;16.80;99.90;;;;;;4976220;28;20062;-54
2022/09/20 13:48:32;;;;;;;5.45;1.65;;;16.80;99.90;;;;;;4998095;28;20046;-51
2022/09/20 13:50:58;;;;;;;4.05;1.48;;;16.90;99.90;;;;;;4997039;28;20069;-51
2022/09/20 13:53:26;;;;;;;5.05;1.30;;;17.00;99.90;;;;;;4999116;28;20145;-54
2022/09/20 13:55:54;;;;;;;5.18;1.10;;;17.00;99.90;;;;;;4999588;28;20123;-51
2022/09/20 13:58:24;;;;;;;4.72;0.93;;;17.00;99.90;;;;;;4995739;28;20150;-54